Time;durP1;ratioP1;P1;durP2;ratioP2;P2;SDS_P1;SDS_P2;PMS_P1;PMS_P2;Temp;Humidity;BMP_temperature;BMP_pressure;BME280_temperature;BME280_humidity;BME280_pressure;Samples;Min_cycle;Max_cycle;Signal;HPM_P1;HPM_P2
2022/08/22 00:02:09;;;;;;;6.68;2.65;;;22.50;92.40;;;;;;5113704;27;20240;-42
2022/08/22 00:04:57;;;;;;;8.48;2.90;;;22.50;92.50;;;;;;5119220;27;20206;-40
2022/08/22 00:07:47;;;;;;;7.65;2.90;;;22.50;92.40;;;;;;5095847;27;20225;-48
2022/08/22 00:10:23;;;;;;;8.70;2.92;;;22.50;92.50;;;;;;5109968;27;20202;-48
2022/08/22 00:13:07;;;;;;;6.75;2.40;;;22.50;92.70;;;;;;5121856;27;20679;-47
2022/08/22 00:15:38;;;;;;;9.48;2.80;;;22.50;92.40;;;;;;5108362;28;20229;-48
2022/08/22 00:18:32;;;;;;;5.10;2.25;;;22.50;92.40;;;;;;5107938;27;20201;-47
2022/08/22 00:21:30;;;;;;;5.05;2.50;;;22.50;92.50;;;;;;5108836;27;20259;-48
2022/08/22 00:24:16;;;;;;;6.88;2.67;;;22.40;92.50;;;;;;5111630;27;20267;-48
2022/08/22 00:26:53;;;;;;;7.90;2.40;;;22.40;92.50;;;;;;5112447;27;20206;-48
2022/08/22 00:29:29;;;;;;;7.60;2.75;;;22.40;92.50;;;;;;5127527;27;20194;-48
2022/08/22 00:32:19;;;;;;;5.68;2.28;;;22.30;92.50;;;;;;5107688;28;20214;-48
2022/08/22 00:35:00;;;;;;;4.25;2.17;;;22.30;92.50;;;;;;5118079;27;20239;-48
2022/08/22 00:37:43;;;;;;;7.07;2.13;;;22.30;92.50;;;;;;5108221;27;20204;-48
2022/08/22 00:40:48;;;;;;;6.57;2.60;;;22.30;92.60;;;;;;5119534;27;20232;-48
2022/08/22 00:43:38;;;;;;;6.03;2.17;;;22.20;92.60;;;;;;5110030;27;20230;-48
2022/08/22 00:46:17;;;;;;;5.45;2.47;;;22.20;92.60;;;;;;5116174;27;20554;-48
2022/08/22 00:49:22;;;;;;;6.70;2.53;;;22.20;92.60;;;;;;5127455;27;20300;-48
2022/08/22 00:52:22;;;;;;;8.30;2.50;;;22.20;92.70;;;;;;5110483;27;20218;-48
2022/08/22 00:54:59;;;;;;;5.65;2.30;;;22.20;92.60;;;;;;5126868;27;20744;-49
2022/08/22 00:57:48;;;;;;;5.05;2.30;;;22.10;92.60;;;;;;5111148;27;20617;-48
2022/08/22 01:00:25;;;;;;;6.43;2.67;;;22.10;92.70;;;;;;5111415;27;20214;-47
2022/08/22 01:03:16;;;;;;;4.03;2.28;;;22.10;92.70;;;;;;5100360;27;20229;-50
2022/08/22 01:06:28;;;;;;;5.22;2.50;;;22.10;92.70;;;;;;5091671;27;20673;-48
2022/08/22 01:09:01;;;;;;;6.90;2.40;;;22.10;92.70;;;;;;5010741;28;21483;-49
2022/08/22 01:11:55;;;;;;;5.55;2.10;;;22.00;92.70;;;;;;5114482;27;20797;-49
2022/08/22 01:14:33;;;;;;;5.63;2.35;;;22.00;92.70;;;;;;5108660;27;20214;-51
2022/08/22 01:17:04;;;;;;;6.00;2.42;;;22.00;92.70;;;;;;5109147;27;20226;-49
2022/08/22 01:19:56;;;;;;;4.70;2.30;;;21.90;92.70;;;;;;5109901;27;20289;-49
2022/08/22 01:22:45;;;;;;;7.47;2.40;;;21.90;92.70;;;;;;5125803;27;20237;-50
2022/08/22 01:25:44;;;;;;;7.22;3.05;;;21.90;92.80;;;;;;5113079;27;20198;-50
2022/08/22 01:28:55;;;;;;;8.93;2.70;;;21.90;92.70;;;;;;5113542;27;20212;-49
2022/08/22 01:32:02;;;;;;;5.32;2.67;;;21.90;92.80;;;;;;5108616;27;20232;-49
2022/08/22 01:34:47;;;;;;;4.55;2.35;;;21.80;92.80;;;;;;5121741;27;20204;-43
2022/08/22 01:37:39;;;;;;;5.13;2.60;;;21.80;92.70;;;;;;5121965;27;20225;-43
2022/08/22 01:40:40;;;;;;;5.53;2.80;;;21.80;92.80;;;;;;5119168;27;20779;-43
2022/08/22 01:43:35;;;;;;;7.93;2.65;;;21.70;92.80;;;;;;5103678;27;20278;-43
2022/08/22 01:46:31;;;;;;;6.80;3.28;;;21.70;92.70;;;;;;5098027;27;20466;-50
2022/08/22 01:49:04;;;;;;;8.60;2.65;;;21.70;92.70;;;;;;5101875;28;20221;-50
2022/08/22 01:51:43;;;;;;;5.53;2.47;;;21.70;92.80;;;;;;5103188;28;20791;-42
2022/08/22 01:54:34;;;;;;;5.88;2.30;;;21.60;92.80;;;;;;5122256;28;20241;-42
2022/08/22 01:57:06;;;;;;;9.05;2.58;;;21.60;92.80;;;;;;5107659;28;20321;-42
2022/08/22 01:59:51;;;;;;;5.63;2.70;;;21.50;92.70;;;;;;5095429;27;20236;-43
2022/08/22 02:02:35;;;;;;;6.53;2.95;;;21.60;92.90;;;;;;5124549;28;20205;-44
2022/08/22 02:05:30;;;;;;;5.90;2.80;;;21.50;92.80;;;;;;5117855;28;20212;-43
2022/08/22 02:08:16;;;;;;;5.47;2.90;;;21.50;92.90;;;;;;5117239;28;21521;-44
2022/08/22 02:11:05;;;;;;;6.20;2.72;;;21.50;92.90;;;;;;5121622;28;20193;-50
2022/08/22 02:13:47;;;;;;;4.30;2.40;;;21.40;92.90;;;;;;5113287;28;20214;-50
2022/08/22 02:16:39;;;;;;;4.80;2.78;;;21.40;93.10;;;;;;5108018;28;20225;-49
2022/08/22 02:19:12;;;;;;;7.20;3.17;;;21.40;93.00;;;;;;5126233;28;20601;-49
2022/08/22 02:21:55;;;;;;;5.35;3.05;;;21.40;92.90;;;;;;5107576;28;20649;-49
2022/08/22 02:24:34;;;;;;;6.80;3.17;;;21.40;93.00;;;;;;5090966;28;20259;-50
2022/08/22 02:27:07;;;;;;;8.90;3.58;;;21.40;93.00;;;;;;5122019;28;20206;-49
2022/08/22 02:29:40;;;;;;;7.22;3.58;;;21.30;92.90;;;;;;5125300;28;20201;-49
2022/08/22 02:32:26;;;;;;;6.20;3.05;;;21.30;92.90;;;;;;5087452;28;20364;-49
2022/08/22 02:35:09;;;;;;;6.55;3.03;;;21.40;93.10;;;;;;5126125;28;20707;-49
2022/08/22 02:37:59;;;;;;;8.45;3.58;;;21.30;93.10;;;;;;5100729;28;20196;-42
2022/08/22 02:40:35;;;;;;;6.32;3.03;;;21.30;93.10;;;;;;5111393;28;20217;-43
2022/08/22 02:43:19;;;;;;;6.95;3.03;;;21.30;93.10;;;;;;5120975;27;20198;-43
2022/08/22 02:46:14;;;;;;;8.43;3.17;;;21.30;93.30;;;;;;5114232;27;20206;-43
2022/08/22 02:48:54;;;;;;;5.43;2.60;;;21.30;93.20;;;;;;5124896;27;20206;-43
2022/08/22 02:51:34;;;;;;;7.60;2.67;;;21.30;93.20;;;;;;5127540;27;20688;-43
2022/08/22 02:54:22;;;;;;;6.65;2.80;;;21.30;93.20;;;;;;5096618;27;20205;-44
2022/08/22 02:57:08;;;;;;;5.55;2.67;;;21.30;93.10;;;;;;5093435;27;20579;-43
2022/08/22 02:59:58;;;;;;;6.35;2.70;;;21.30;93.20;;;;;;5114489;27;20301;-42
2022/08/22 03:02:45;;;;;;;8.27;3.08;;;21.30;93.30;;;;;;5129648;27;20205;-43
2022/08/22 03:05:39;;;;;;;8.23;3.13;;;21.30;93.30;;;;;;5128164;27;20205;-43
2022/08/22 03:08:23;;;;;;;4.90;2.53;;;21.30;93.40;;;;;;5131462;27;20206;-41
2022/08/22 03:11:38;;;;;;;7.28;2.42;;;21.30;93.30;;;;;;5111306;27;20194;-44
2022/08/22 03:14:19;;;;;;;5.35;3.10;;;21.30;93.40;;;;;;5116425;27;20658;-43
2022/08/22 03:17:05;;;;;;;5.15;2.80;;;21.30;93.30;;;;;;5129049;27;20229;-43
2022/08/22 03:19:57;;;;;;;5.53;2.90;;;21.30;93.40;;;;;;5127024;27;20321;-43
2022/08/22 03:22:45;;;;;;;4.18;2.33;;;21.30;93.40;;;;;;5115824;27;20284;-44
2022/08/22 03:25:40;;;;;;;6.75;2.90;;;21.30;93.40;;;;;;5128877;27;20213;-43
2022/08/22 03:28:13;;;;;;;6.38;2.63;;;21.30;93.50;;;;;;5111960;27;20197;-44
2022/08/22 03:30:50;;;;;;;7.50;2.72;;;21.30;93.40;;;;;;5118610;27;20206;-43
2022/08/22 03:33:21;;;;;;;6.40;2.90;;;21.30;93.40;;;;;;5107179;27;20209;-44
2022/08/22 03:36:08;;;;;;;3.90;2.83;;;21.30;93.40;;;;;;5111296;27;20297;-42
2022/08/22 03:38:35;;;;;;;5.32;2.83;;;21.30;93.40;;;;;;5111918;27;20186;-42
2022/08/22 03:41:11;;;;;;;7.63;3.22;;;21.30;93.40;;;;;;5112959;27;20225;-43
2022/08/22 03:44:02;;;;;;;6.40;2.67;;;21.30;93.50;;;;;;5111723;27;20205;-50
2022/08/22 03:46:55;;;;;;;6.70;2.60;;;21.30;93.50;;;;;;5123013;27;20452;-49
2022/08/22 03:49:35;;;;;;;6.18;2.63;;;21.30;93.60;;;;;;5114310;27;20576;-49
2022/08/22 03:52:33;;;;;;;6.38;2.92;;;21.30;93.60;;;;;;5112416;27;20253;-50
2022/08/22 03:55:03;;;;;;;8.30;2.75;;;21.30;93.60;;;;;;5124671;27;20201;-49
2022/08/22 03:57:53;;;;;;;5.63;2.70;;;21.20;93.50;;;;;;5117428;27;20218;-49
2022/08/22 04:00:49;;;;;;;7.10;2.70;;;21.20;93.60;;;;;;5112642;27;20214;-49
2022/08/22 04:03:40;;;;;;;5.82;2.92;;;21.20;93.60;;;;;;5106730;27;20197;-49
2022/08/22 04:06:35;;;;;;;5.28;2.65;;;21.20;93.60;;;;;;5117804;27;20231;-50
2022/08/22 04:09:25;;;;;;;7.50;2.92;;;21.20;93.60;;;;;;5128532;27;20641;-49
2022/08/22 04:12:33;;;;;;;10.05;3.42;;;21.20;93.50;;;;;;5108247;27;20606;-49
2022/08/22 04:15:38;;;;;;;5.05;2.80;;;21.20;93.60;;;;;;5119291;27;20288;-49
2022/08/22 04:18:30;;;;;;;7.00;2.78;;;21.20;93.60;;;;;;5126495;27;20228;-49
2022/08/22 04:21:24;;;;;;;4.57;2.78;;;21.20;93.50;;;;;;5106528;27;20197;-49
2022/08/22 04:24:03;;;;;;;4.22;2.92;;;21.20;93.50;;;;;;5111064;27;20214;-49
2022/08/22 04:26:36;;;;;;;8.27;2.85;;;21.20;93.60;;;;;;5126248;27;20201;-49
2022/08/22 04:29:52;;;;;;;4.55;3.00;;;21.20;93.50;;;;;;5118374;27;20702;-48
2022/08/22 04:32:25;;;;;;;8.73;3.35;;;21.20;93.70;;;;;;5077394;27;20214;-44
2022/08/22 04:35:00;;;;;;;10.60;3.45;;;21.20;93.60;;;;;;5127889;27;20762;-43
2022/08/22 04:37:34;;;;;;;6.97;2.67;;;21.20;93.70;;;;;;5123862;27;20232;-43
2022/08/22 04:40:13;;;;;;;6.03;3.40;;;21.20;93.80;;;;;;5098161;28;20198;-43
2022/08/22 04:42:59;;;;;;;5.80;3.28;;;21.10;93.80;;;;;;5111885;27;20212;-42
2022/08/22 04:45:45;;;;;;;5.30;3.22;;;21.20;93.90;;;;;;5107757;28;20292;-44
2022/08/22 04:48:30;;;;;;;6.50;3.60;;;21.20;93.80;;;;;;5109720;27;20213;-43
2022/08/22 04:51:11;;;;;;;7.82;3.60;;;21.20;93.90;;;;;;5107874;27;20250;-43
2022/08/22 04:53:47;;;;;;;6.00;3.35;;;21.10;94.00;;;;;;5103637;28;20236;-43
2022/08/22 04:56:24;;;;;;;6.05;2.95;;;21.10;93.80;;;;;;5119457;27;20680;-43
2022/08/22 04:59:06;;;;;;;8.23;3.20;;;21.10;94.00;;;;;;5117662;27;20318;-42
2022/08/22 05:01:57;;;;;;;8.45;3.60;;;21.10;93.80;;;;;;5125813;27;20293;-42
2022/08/22 05:04:39;;;;;;;5.78;3.13;;;21.20;94.30;;;;;;5124072;27;20213;-43
2022/08/22 05:07:15;;;;;;;6.90;3.00;;;21.20;93.90;;;;;;5113201;27;20281;-43
2022/08/22 05:09:50;;;;;;;8.43;3.40;;;21.20;94.00;;;;;;5119120;27;21731;-43
2022/08/22 05:12:34;;;;;;;5.65;3.42;;;21.10;93.90;;;;;;5116674;27;20212;-42
2022/08/22 05:15:28;;;;;;;9.88;3.13;;;21.10;93.90;;;;;;5119657;27;20662;-42
2022/08/22 05:18:05;;;;;;;7.53;3.60;;;21.20;94.10;;;;;;5094569;27;20688;-43
2022/08/22 05:20:36;;;;;;;6.38;3.17;;;21.20;94.00;;;;;;5107571;27;20553;-44
2022/08/22 05:23:28;;;;;;;6.85;3.42;;;21.10;94.00;;;;;;5087524;27;20198;-42
2022/08/22 05:26:03;;;;;;;7.30;3.63;;;21.10;94.10;;;;;;5113827;27;20202;-43
2022/08/22 05:28:51;;;;;;;10.07;3.67;;;21.10;94.10;;;;;;5118357;27;20608;-43
2022/08/22 05:31:27;;;;;;;6.97;4.00;;;21.10;94.30;;;;;;5109878;27;20307;-41
2022/08/22 05:34:06;;;;;;;5.45;3.15;;;21.10;94.20;;;;;;5098028;27;20296;-41
2022/08/22 05:36:39;;;;;;;6.28;2.95;;;21.10;94.20;;;;;;5111156;27;20340;-40
2022/08/22 05:39:15;;;;;;;8.13;3.58;;;21.10;94.20;;;;;;5105753;27;20227;-43
2022/08/22 05:41:43;;;;;;;6.60;3.33;;;21.10;94.30;;;;;;5120296;27;20205;-42
2022/08/22 05:44:24;;;;;;;10.70;3.28;;;21.10;94.30;;;;;;5107558;27;20200;-41
2022/08/22 05:47:01;;;;;;;7.88;3.90;;;21.10;94.40;;;;;;5105392;28;20214;-42
2022/08/22 05:50:02;;;;;;;11.73;4.00;;;21.10;94.40;;;;;;5105394;27;20286;-41
2022/08/22 05:52:39;;;;;;;10.10;3.83;;;21.20;94.50;;;;;;5124075;27;20575;-41
2022/08/22 05:55:46;;;;;;;9.45;3.88;;;21.10;94.40;;;;;;5111207;28;20205;-41
2022/08/22 05:58:35;;;;;;;8.57;3.50;;;21.20;94.50;;;;;;5100076;27;20614;-41
2022/08/22 06:01:25;;;;;;;8.95;4.15;;;21.20;94.60;;;;;;5110041;27;20312;-41
2022/08/22 06:03:55;;;;;;;10.10;4.22;;;21.20;94.50;;;;;;5097600;28;20214;-41
2022/08/22 06:06:27;;;;;;;7.65;3.72;;;21.20;94.50;;;;;;5127686;27;20710;-41
2022/08/22 06:09:09;;;;;;;7.13;4.53;;;21.30;94.50;;;;;;5103798;28;20516;-42
2022/08/22 06:11:42;;;;;;;7.43;3.47;;;21.30;94.60;;;;;;5114590;27;20284;-41
2022/08/22 06:14:41;;;;;;;10.27;4.22;;;21.30;94.50;;;;;;5116716;28;20728;-42
2022/08/22 06:17:27;;;;;;;8.27;3.38;;;21.40;94.60;;;;;;5103825;27;20218;-41
2022/08/22 06:19:58;;;;;;;8.60;3.55;;;21.40;94.50;;;;;;5125321;27;20607;-42
2022/08/22 06:22:33;;;;;;;6.43;3.17;;;21.40;94.60;;;;;;5123027;27;20284;-42
2022/08/22 06:25:19;;;;;;;8.18;3.92;;;21.40;94.50;;;;;;5135762;27;20200;-40
2022/08/22 06:27:50;;;;;;;8.93;3.60;;;21.40;94.50;;;;;;5097689;27;20198;-47
2022/08/22 06:30:25;;;;;;;8.63;3.90;;;21.40;94.50;;;;;;5121592;27;20209;-45
2022/08/22 06:33:09;;;;;;;7.07;3.78;;;21.40;94.50;;;;;;5134003;27;20209;-46
2022/08/22 06:39:05;;;;;;;12.20;4.00;;;21.50;94.70;;;;;;5136643;27;20193;-45
2022/08/22 06:41:41;;;;;;;9.27;4.13;;;21.50;94.60;;;;;;5118836;27;20262;-46
2022/08/22 06:44:11;;;;;;;8.75;4.18;;;21.50;94.60;;;;;;5132254;27;20292;-46
2022/08/22 06:46:49;;;;;;;9.13;3.95;;;21.50;94.70;;;;;;5126759;27;20209;-48
2022/08/22 06:49:19;;;;;;;9.27;3.92;;;21.50;94.70;;;;;;5111361;27;20735;-46
2022/08/22 06:51:48;;;;;;;9.95;3.45;;;21.60;94.70;;;;;;5130416;27;20198;-46
2022/08/22 06:54:24;;;;;;;10.15;4.38;;;21.60;94.70;;;;;;5125137;27;20205;-47
2022/08/22 06:56:57;;;;;;;8.07;3.88;;;21.60;94.80;;;;;;5139566;27;20232;-46
2022/08/22 06:59:33;;;;;;;7.95;3.55;;;21.60;94.80;;;;;;5095199;28;20266;-45
2022/08/22 07:02:27;;;;;;;9.00;4.00;;;21.60;94.80;;;;;;5111469;27;20221;-46
2022/08/22 07:04:55;;;;;;;9.70;3.90;;;21.70;94.90;;;;;;5110385;27;20185;-47
2022/08/22 07:07:25;;;;;;;10.65;4.30;;;21.70;94.80;;;;;;5109954;27;20288;-45
2022/08/22 07:09:56;;;;;;;6.30;3.38;;;21.70;94.80;;;;;;5119868;27;20205;-47
2022/08/22 07:12:30;;;;;;;8.63;4.30;;;21.70;94.90;;;;;;5111741;27;20201;-48
2022/08/22 07:15:11;;;;;;;7.03;3.70;;;21.70;94.90;;;;;;5118138;27;20219;-49
2022/08/22 07:17:50;;;;;;;10.68;4.38;;;21.80;94.80;;;;;;5095712;27;20244;-42
2022/08/22 07:20:28;;;;;;;10.15;4.28;;;21.80;94.90;;;;;;5120084;27;20572;-40
2022/08/22 07:23:11;;;;;;;10.70;4.40;;;21.80;94.90;;;;;;5095640;27;20217;-41
2022/08/22 07:25:53;;;;;;;10.00;4.22;;;21.90;95.00;;;;;;5129528;27;20189;-43
2022/08/22 07:28:41;;;;;;;5.60;3.90;;;21.90;95.00;;;;;;5126858;27;20200;-43
2022/08/22 07:31:36;;;;;;;13.45;4.80;;;21.90;95.00;;;;;;5114488;27;20298;-43
2022/08/22 07:34:34;;;;;;;8.32;4.35;;;21.90;95.00;;;;;;5094003;27;20746;-48
2022/08/22 07:37:13;;;;;;;7.55;4.30;;;22.00;95.10;;;;;;5096845;27;20590;-46
2022/08/22 07:39:55;;;;;;;10.20;4.13;;;22.10;95.10;;;;;;5130798;27;20217;-47
2022/08/22 07:42:47;;;;;;;8.50;3.95;;;22.10;95.10;;;;;;5116568;27;20383;-47
2022/08/22 07:45:51;;;;;;;11.35;3.78;;;22.20;95.20;;;;;;5093757;27;20202;-48
2022/08/22 07:48:23;;;;;;;6.60;3.88;;;22.20;95.20;;;;;;5120609;27;20555;-48
2022/08/22 07:50:57;;;;;;;8.27;3.72;;;22.30;95.30;;;;;;5095745;28;20264;-48
2022/08/22 07:53:56;;;;;;;7.93;3.30;;;22.40;95.40;;;;;;5114723;27;20202;-47
2022/08/22 07:56:32;;;;;;;8.05;3.17;;;22.50;95.80;;;;;;5108984;27;20204;-48
2022/08/22 07:59:16;;;;;;;11.07;4.63;;;22.60;95.50;;;;;;5110210;27;20230;-47
2022/08/22 08:01:49;;;;;;;8.30;3.60;;;22.70;95.50;;;;;;5121055;27;20197;-47
2022/08/22 08:04:23;;;;;;;8.77;3.42;;;22.80;95.60;;;;;;5114765;27;20574;-48
2022/08/22 08:06:57;;;;;;;8.20;3.45;;;22.90;95.60;;;;;;5113689;27;20606;-47
2022/08/22 08:09:29;;;;;;;8.15;3.67;;;23.00;95.60;;;;;;5113744;27;20641;-48
2022/08/22 08:11:58;;;;;;;7.75;3.53;;;23.00;95.70;;;;;;5120620;27;20656;-48
2022/08/22 08:14:26;;;;;;;8.32;4.00;;;23.10;95.70;;;;;;5128348;27;20316;-47
2022/08/22 08:17:01;;;;;;;6.03;3.05;;;23.20;96.00;;;;;;5122507;27;20218;-47
2022/08/22 08:19:34;;;;;;;10.55;3.88;;;23.20;95.70;;;;;;5097303;27;20220;-47
2022/08/22 08:22:05;;;;;;;6.47;3.35;;;23.30;95.80;;;;;;5125525;27;20209;-47
2022/08/22 08:24:36;;;;;;;7.70;3.40;;;23.30;95.80;;;;;;5112492;27;20194;-48
2022/08/22 08:30:14;;;;;;;8.25;3.25;;;23.40;95.80;;;;;;5112384;27;21627;-47
2022/08/22 08:32:47;;;;;;;7.07;2.92;;;23.50;95.80;;;;;;5104872;27;20216;-41
2022/08/22 08:35:22;;;;;;;5.40;3.22;;;23.50;95.80;;;;;;5119736;27;20692;-40
2022/08/22 08:37:58;;;;;;;6.82;3.20;;;23.50;95.80;;;;;;5125495;27;20287;-42
2022/08/22 08:40:26;;;;;;;7.45;3.42;;;23.60;95.90;;;;;;5108596;27;20209;-42
2022/08/22 08:43:28;;;;;;;6.97;3.38;;;23.70;95.90;;;;;;5107705;27;20301;-42
2022/08/22 08:46:29;;;;;;;8.93;3.10;;;23.70;95.90;;;;;;5094225;27;20209;-42
2022/08/22 08:49:11;;;;;;;6.07;3.47;;;23.80;95.90;;;;;;5107322;27;20313;-42
2022/08/22 08:51:54;;;;;;;7.20;3.20;;;23.90;96.00;;;;;;5120076;27;20648;-42
2022/08/22 08:54:50;;;;;;;5.75;2.95;;;23.90;96.00;;;;;;5091963;28;20687;-40
2022/08/22 08:57:44;;;;;;;7.97;4.25;;;24.10;96.10;;;;;;5122558;27;20271;-40
2022/08/22 09:00:17;;;;;;;8.82;3.90;;;24.10;95.90;;;;;;5124521;27;20695;-40
2022/08/22 09:02:50;;;;;;;6.10;3.25;;;24.30;96.10;;;;;;5108466;27;20213;-41
2022/08/22 09:05:17;;;;;;;10.90;3.42;;;24.30;96.10;;;;;;5112784;27;20205;-48
2022/08/22 09:08:33;;;;;;;5.93;2.88;;;24.40;96.20;;;;;;5120426;27;20191;-47
2022/08/22 09:11:19;;;;;;;7.57;3.22;;;24.50;96.30;;;;;;5043584;28;20312;-48
2022/08/22 09:14:15;;;;;;;9.63;4.07;;;24.60;96.30;;;;;;5126705;27;20233;-48
2022/08/22 09:16:52;;;;;;;6.80;3.22;;;24.70;96.30;;;;;;5124099;27;20668;-43
2022/08/22 09:19:38;;;;;;;7.30;3.50;;;24.80;96.40;;;;;;5115232;27;20304;-47
2022/08/22 09:22:33;;;;;;;9.40;3.35;;;24.80;96.40;;;;;;5092356;27;20211;-46
2022/08/22 09:25:27;;;;;;;9.68;4.00;;;24.90;96.30;;;;;;5117806;27;20211;-48
2022/08/22 09:28:48;;;;;;;11.52;5.00;;;25.00;96.30;;;;;;5094015;27;20728;-42
2022/08/22 09:31:33;;;;;;;12.15;4.07;;;25.10;96.20;;;;;;5072700;27;20217;-41
2022/08/22 09:34:39;;;;;;;17.83;4.63;;;25.20;96.30;;;;;;5135245;27;20237;-40
2022/08/22 09:37:26;;;;;;;13.50;4.88;;;25.30;95.90;;;;;;5113452;27;20759;-39
2022/08/22 09:40:24;;;;;;;11.95;4.25;;;25.30;96.10;;;;;;5113688;27;20201;-40
2022/08/22 09:43:39;;;;;;;12.02;3.40;;;25.40;96.20;;;;;;5116954;27;20209;-41
2022/08/22 09:46:28;;;;;;;10.23;5.40;;;25.50;96.10;;;;;;5107529;27;20208;-40
2022/08/22 09:49:22;;;;;;;7.05;4.32;;;25.50;95.90;;;;;;5112628;27;20568;-40
2022/08/22 09:52:04;;;;;;;7.18;3.25;;;25.60;96.00;;;;;;5148095;27;20607;-40
2022/08/22 09:55:03;;;;;;;10.68;3.08;;;25.60;95.90;;;;;;5140435;27;20217;-40
2022/08/22 09:57:37;;;;;;;10.35;3.30;;;25.70;96.00;;;;;;5109029;28;20214;-41
2022/08/22 10:00:05;;;;;;;6.55;2.85;;;25.70;96.10;;;;;;5088230;28;20205;-40
2022/08/22 10:02:54;;;;;;;11.15;3.67;;;25.80;96.10;;;;;;5125049;27;20741;-41
2022/08/22 10:05:38;;;;;;;6.40;3.50;;;25.80;96.00;;;;;;5121297;27;20618;-40
2022/08/22 10:08:32;;;;;;;6.38;2.83;;;25.90;96.00;;;;;;5105648;28;20690;-46
2022/08/22 10:11:13;;;;;;;8.82;3.10;;;25.90;96.10;;;;;;5124004;28;20648;-46
2022/08/22 10:14:01;;;;;;;6.55;3.22;;;26.10;96.20;;;;;;5122120;27;20201;-46
2022/08/22 10:16:58;;;;;;;8.27;3.20;;;26.10;95.80;;;;;;5091721;28;20324;-46
2022/08/22 10:19:26;;;;;;;4.80;3.20;;;26.10;95.70;;;;;;5113564;27;20711;-47
2022/08/22 10:22:21;;;;;;;6.63;2.58;;;26.10;95.70;;;;;;5106776;28;20197;-46
2022/08/22 10:25:05;;;;;;;5.80;2.60;;;26.10;95.70;;;;;;5122034;27;20318;-46
2022/08/22 10:27:48;;;;;;;7.18;3.42;;;26.20;95.80;;;;;;5110226;27;20210;-49
2022/08/22 10:30:29;;;;;;;6.32;3.10;;;26.20;95.60;;;;;;5115947;27;20202;-48
2022/08/22 10:33:20;;;;;;;7.30;2.63;;;26.20;95.40;;;;;;5107280;28;20198;-48
2022/08/22 10:36:09;;;;;;;7.60;2.95;;;26.20;95.40;;;;;;5107563;28;20194;-48
2022/08/22 10:38:43;;;;;;;6.28;2.92;;;26.20;95.20;;;;;;5131175;27;20242;-42
2022/08/22 10:41:24;;;;;;;4.53;2.20;;;26.20;95.10;;;;;;5131454;27;20298;-42
2022/08/22 10:43:56;;;;;;;7.15;2.63;;;26.20;95.10;;;;;;5115617;27;20665;-41
2022/08/22 10:46:53;;;;;;;8.05;2.60;;;26.20;95.00;;;;;;5111470;28;20213;-49
2022/08/22 10:49:31;;;;;;;11.15;2.70;;;26.30;94.90;;;;;;5125745;28;20202;-49
2022/08/22 10:52:19;;;;;;;5.38;2.10;;;26.30;95.00;;;;;;5108109;28;20541;-41
2022/08/22 10:54:55;;;;;;;5.97;2.30;;;26.40;94.80;;;;;;5133278;27;20311;-41
2022/08/22 10:57:48;;;;;;;9.45;3.17;;;26.40;95.00;;;;;;5088160;28;20236;-40
2022/08/22 11:00:56;;;;;;;5.47;2.17;;;26.40;95.00;;;;;;5110563;27;20210;-40
2022/08/22 11:03:27;;;;;;;8.27;2.35;;;26.40;94.60;;;;;;5127600;27;20214;-42
2022/08/22 11:06:05;;;;;;;4.75;2.17;;;26.40;93.70;;;;;;5111535;27;20212;-41
2022/08/22 11:08:52;;;;;;;6.28;2.13;;;26.40;93.70;;;;;;5118900;27;20292;-42
2022/08/22 11:11:31;;;;;;;6.18;2.33;;;26.30;94.00;;;;;;5125168;27;20691;-41
2022/08/22 11:14:25;;;;;;;10.32;2.50;;;26.30;93.80;;;;;;5128961;27;20578;-41
2022/08/22 11:17:17;;;;;;;6.57;2.20;;;26.20;93.70;;;;;;5111924;27;20213;-41
2022/08/22 11:20:23;;;;;;;7.60;2.60;;;26.30;94.00;;;;;;5119034;27;20217;-41
2022/08/22 11:23:09;;;;;;;6.55;2.35;;;26.20;92.80;;;;;;5130748;27;20206;-42
2022/08/22 11:26:12;;;;;;;6.30;2.20;;;26.20;93.60;;;;;;5113880;27;20194;-42
2022/08/22 11:28:48;;;;;;;7.60;2.33;;;26.20;93.80;;;;;;5036366;27;20970;-41
2022/08/22 11:31:18;;;;;;;8.38;2.30;;;26.20;93.80;;;;;;5122433;27;20205;-41
2022/08/22 11:34:22;;;;;;;9.10;2.90;;;26.20;93.80;;;;;;5129193;27;20198;-42
2022/08/22 11:37:12;;;;;;;5.53;1.80;;;26.30;93.80;;;;;;5113216;27;20197;-41
2022/08/22 11:40:00;;;;;;;8.77;2.05;;;26.30;93.80;;;;;;5109597;28;20650;-41
2022/08/22 11:42:40;;;;;;;7.13;2.38;;;26.30;93.80;;;;;;5113528;27;20212;-42
2022/08/22 11:45:22;;;;;;;9.15;2.65;;;26.30;93.00;;;;;;5115183;27;20251;-41
2022/08/22 11:48:03;;;;;;;8.65;1.98;;;26.30;93.00;;;;;;5127822;27;20220;-41
2022/08/22 11:50:44;;;;;;;7.60;2.38;;;26.40;93.50;;;;;;5137486;27;20259;-42
2022/08/22 11:53:33;;;;;;;6.50;2.17;;;26.40;93.70;;;;;;5113504;27;20254;-42
2022/08/22 11:56:13;;;;;;;9.60;2.47;;;26.40;93.60;;;;;;5097036;28;20214;-41
2022/08/22 11:58:44;;;;;;;7.05;2.40;;;26.40;93.40;;;;;;5113880;27;20376;-41
2022/08/22 12:01:17;;;;;;;10.65;1.98;;;26.40;92.50;;;;;;5113191;27;20210;-42
2022/08/22 12:04:05;;;;;;;5.60;2.25;;;26.50;92.80;;;;;;5115066;27;20210;-41
2022/08/22 12:06:44;;;;;;;8.88;1.92;;;26.50;93.30;;;;;;5108975;28;20210;-41
2022/08/22 12:09:31;;;;;;;8.20;2.22;;;26.60;93.70;;;;;;5128085;27;20580;-42
2022/08/22 12:12:06;;;;;;;5.18;1.67;;;26.70;93.10;;;;;;5108751;27;20205;-41
2022/08/22 12:14:47;;;;;;;9.43;1.83;;;26.70;93.60;;;;;;5121883;27;20209;-41
2022/08/22 12:17:28;;;;;;;5.10;1.73;;;26.80;93.30;;;;;;5133538;27;20205;-41
2022/08/22 12:20:39;;;;;;;5.35;2.00;;;26.90;93.60;;;;;;5120292;27;20209;-50
2022/08/22 12:23:49;;;;;;;5.30;2.35;;;27.00;93.50;;;;;;5092048;28;20198;-50
2022/08/22 12:26:39;;;;;;;5.25;1.75;;;27.10;93.80;;;;;;5108536;28;20198;-50
2022/08/22 12:29:48;;;;;;;5.72;1.73;;;27.20;93.50;;;;;;5120186;27;20719;-49
2022/08/22 12:32:47;;;;;;;3.10;1.35;;;27.40;93.70;;;;;;5090794;28;20783;-49
2022/08/22 12:35:37;;;;;;;4.78;1.88;;;27.50;93.90;;;;;;5115426;27;20251;-49
2022/08/22 12:38:30;;;;;;;6.30;2.05;;;27.60;92.90;;;;;;5121985;27;20237;-47
2022/08/22 12:41:45;;;;;;;6.78;2.22;;;27.70;93.40;;;;;;5126528;27;20282;-47
2022/08/22 12:44:30;;;;;;;4.10;2.30;;;27.80;93.20;;;;;;5122339;27;20707;-47
2022/08/22 12:47:22;;;;;;;3.42;1.85;;;27.90;93.30;;;;;;5118262;27;20204;-47
2022/08/22 12:50:21;;;;;;;5.80;2.10;;;27.90;93.50;;;;;;5118727;27;20575;-47
2022/08/22 12:53:07;;;;;;;4.80;1.80;;;28.00;93.30;;;;;;5126625;27;20679;-47
2022/08/22 12:55:46;;;;;;;5.82;1.60;;;28.00;92.90;;;;;;5112891;27;20207;-47
2022/08/22 12:58:54;;;;;;;3.03;1.30;;;28.10;93.30;;;;;;5117774;27;20249;-47
2022/08/22 13:01:26;;;;;;;3.53;1.80;;;28.20;93.30;;;;;;5097810;28;20206;-48
2022/08/22 13:04:05;;;;;;;4.30;1.63;;;28.20;93.40;;;;;;5099192;27;20201;-49
2022/08/22 13:06:50;;;;;;;5.88;1.77;;;28.20;93.40;;;;;;5109110;27;20790;-48
2022/08/22 13:09:27;;;;;;;4.47;1.60;;;28.40;93.30;;;;;;5094218;27;20210;-48
2022/08/22 13:12:19;;;;;;;8.38;1.73;;;28.40;93.50;;;;;;5122206;27;20204;-48
2022/08/22 13:14:55;;;;;;;9.40;2.33;;;28.50;93.00;;;;;;5104358;27;20220;-49
2022/08/22 13:17:25;;;;;;;5.97;1.80;;;28.60;92.90;;;;;;5113594;27;20205;-48
2022/08/22 13:20:00;;;;;;;9.43;2.33;;;28.60;93.10;;;;;;5111553;27;20249;-49
2022/08/22 13:22:33;;;;;;;3.75;1.70;;;28.60;92.80;;;;;;5107375;28;20569;-49
2022/08/22 13:25:23;;;;;;;5.68;1.92;;;28.70;92.90;;;;;;5114265;27;20640;-48
2022/08/22 13:28:08;;;;;;;5.05;2.08;;;28.70;93.00;;;;;;5125659;27;20193;-48
2022/08/22 13:30:41;;;;;;;2.75;1.80;;;28.80;92.80;;;;;;5113701;27;20963;-49
2022/08/22 13:33:17;;;;;;;4.68;1.90;;;28.80;93.10;;;;;;5115572;27;20204;-49
2022/08/22 13:35:48;;;;;;;6.85;2.03;;;28.90;92.90;;;;;;5126261;27;20241;-48
2022/08/22 13:38:41;;;;;;;3.05;1.50;;;28.90;91.70;;;;;;5124380;27;20310;-49
2022/08/22 13:41:22;;;;;;;4.13;1.77;;;29.00;92.20;;;;;;5114597;27;20266;-48
2022/08/22 13:44:12;;;;;;;3.75;1.67;;;29.10;92.70;;;;;;5125774;27;20274;-49
2022/08/22 13:46:47;;;;;;;3.38;1.52;;;29.10;93.00;;;;;;5128339;27;20205;-48
2022/08/22 13:49:39;;;;;;;3.80;1.60;;;29.10;92.90;;;;;;5122407;27;20705;-48
2022/08/22 13:52:26;;;;;;;6.05;1.95;;;29.10;93.10;;;;;;5109992;27;20225;-49
2022/08/22 13:55:30;;;;;;;3.45;1.60;;;29.10;92.30;;;;;;5105809;28;20516;-49
2022/08/22 13:58:37;;;;;;;8.10;1.63;;;29.10;92.70;;;;;;5074967;28;20325;-48
2022/08/22 14:01:30;;;;;;;3.58;1.83;;;29.10;92.70;;;;;;5083099;27;20292;-49
2022/08/22 14:04:21;;;;;;;3.40;1.80;;;29.10;92.80;;;;;;5089620;28;20689;-49
2022/08/22 14:07:07;;;;;;;5.03;1.85;;;29.20;92.80;;;;;;5109082;27;20202;-49
2022/08/22 14:09:51;;;;;;;9.27;2.20;;;29.20;92.00;;;;;;5110012;27;20292;-50
2022/08/22 14:12:35;;;;;;;4.85;1.77;;;29.30;92.20;;;;;;5107988;28;20771;-48
2022/08/22 14:15:31;;;;;;;6.10;2.30;;;29.30;91.80;;;;;;5111256;27;21409;-48
2022/08/22 14:18:27;;;;;;;5.43;1.95;;;29.30;92.30;;;;;;5116930;27;20208;-48
2022/08/22 14:21:27;;;;;;;4.40;1.80;;;29.30;92.00;;;;;;5112214;27;20198;-48
2022/08/22 14:24:11;;;;;;;3.80;1.70;;;29.30;92.10;;;;;;5089257;28;20242;-48